Time;durP1;ratioP1;P1;durP2;ratioP2;P2;SDS_P1;SDS_P2;PMS_P1;PMS_P2;Temp;Humidity;BMP_temperature;BMP_pressure;BME280_temperature;BME280_humidity;BME280_pressure;Samples;Min_cycle;Max_cycle;Signal;HPM_P1;HPM_P2
2023/12/27 00:00:47;;;;;;;10.50;4.72;;;11.60;99.90;;;-144.20;100.00;62730.56;4170376;28;20030;-74
2023/12/27 00:02:48;;;;;;;11.70;4.68;;;11.60;99.90;;;-144.20;100.00;62730.56;4165443;28;20030;-74
2023/12/27 00:04:48;;;;;;;10.68;4.43;;;11.70;99.90;;;-144.20;100.00;62730.56;4169968;28;20037;-73
2023/12/27 00:06:52;;;;;;;10.15;4.68;;;11.60;99.90;;;-144.20;100.00;62730.56;4169329;28;20481;-74
2023/12/27 00:08:53;;;;;;;8.77;5.35;;;11.70;99.90;;;-144.20;100.00;62730.56;4170545;28;20540;-74
2023/12/27 00:10:54;;;;;;;12.32;5.25;;;11.70;99.90;;;-144.20;100.00;62730.56;4170481;28;20029;-74
2023/12/27 00:12:55;;;;;;;11.38;4.68;;;11.60;99.90;;;-144.20;100.00;62730.56;4166769;28;20030;-74
2023/12/27 00:14:56;;;;;;;14.02;4.57;;;11.70;99.90;;;-144.20;100.00;62730.56;4169203;28;20021;-74
2023/12/27 00:16:56;;;;;;;7.88;4.47;;;11.70;99.90;;;-144.20;100.00;62730.56;4169080;28;20131;-74
2023/12/27 00:18:57;;;;;;;8.57;4.10;;;11.60;99.90;;;-144.20;100.00;62730.56;4170107;28;20100;-74
2023/12/27 00:20:58;;;;;;;11.63;4.95;;;11.70;99.90;;;-144.20;100.00;62730.56;4170361;28;20037;-74
2023/12/27 00:22:59;;;;;;;9.40;4.70;;;11.70;99.90;;;-144.20;100.00;62730.56;4170229;28;20044;-74
2023/12/27 00:25:00;;;;;;;13.50;6.38;;;11.70;99.90;;;-144.20;100.00;62730.56;4169022;28;20504;-74
2023/12/27 00:27:01;;;;;;;8.75;5.57;;;11.70;99.90;;;-144.20;100.00;62730.56;4168637;28;20034;-74
2023/12/27 00:29:02;;;;;;;12.20;5.72;;;11.70;99.90;;;-144.20;100.00;62730.56;4170143;28;20416;-74
2023/12/27 00:31:03;;;;;;;12.18;5.30;;;11.80;99.90;;;-144.20;100.00;62730.56;4169885;28;20022;-74
2023/12/27 00:33:04;;;;;;;8.70;5.13;;;11.80;99.90;;;-144.20;100.00;62730.56;4175885;28;20031;-74
2023/12/27 00:35:06;;;;;;;12.80;5.55;;;11.80;99.90;;;-144.20;100.00;62730.56;4170023;28;20485;-74
2023/12/27 00:37:07;;;;;;;10.02;5.25;;;11.80;99.90;;;-144.20;100.00;62730.56;4167416;28;20053;-74
2023/12/27 00:39:10;;;;;;;11.93;5.05;;;11.80;99.90;;;-144.20;100.00;62730.56;4201295;28;20021;-74
2023/12/27 00:41:11;;;;;;;12.20;5.45;;;11.90;99.90;;;-144.20;100.00;62730.56;4201579;28;20029;-74
2023/12/27 00:43:12;;;;;;;11.65;5.50;;;11.90;99.90;;;-144.20;100.00;62730.56;4169087;28;20077;-74
2023/12/27 00:45:12;;;;;;;16.27;7.35;;;11.90;99.90;;;-144.20;100.00;62730.56;4169841;28;20068;-74
2023/12/27 00:47:13;;;;;;;11.55;5.30;;;11.90;99.90;;;-144.20;100.00;62730.56;4169787;28;20025;-74
2023/12/27 00:49:16;;;;;;;11.00;5.20;;;11.90;99.90;;;-144.20;100.00;62730.56;4168649;28;20044;-74
2023/12/27 00:51:21;;;;;;;12.63;6.10;;;11.90;99.90;;;-144.20;100.00;62730.56;4169765;28;20028;-74
2023/12/27 00:53:22;;;;;;;10.20;5.07;;;11.90;99.90;;;-144.20;100.00;62730.56;4168212;28;20044;-74
2023/12/27 00:55:23;;;;;;;14.20;6.35;;;11.90;99.90;;;-144.20;100.00;62730.56;4169715;28;20018;-74
2023/12/27 00:57:24;;;;;;;13.38;6.15;;;11.90;99.90;;;-144.20;100.00;62730.56;4151760;28;20123;-73
2023/12/27 00:59:25;;;;;;;11.88;6.05;;;11.90;99.90;;;-144.20;100.00;62730.56;4164053;28;20067;-74
2023/12/27 01:01:26;;;;;;;15.98;6.88;;;11.90;99.90;;;-144.20;100.00;62730.56;4169486;28;20029;-74
2023/12/27 01:03:27;;;;;;;17.05;7.18;;;11.90;99.90;;;-144.20;100.00;62730.56;4169422;28;20028;-74
2023/12/27 01:05:27;;;;;;;12.13;5.38;;;11.90;99.90;;;-144.20;100.00;62730.56;4169686;28;20079;-74
2023/12/27 01:07:28;;;;;;;12.60;5.53;;;11.80;99.90;;;-144.20;100.00;62730.56;4169494;28;20025;-74
2023/12/27 01:09:29;;;;;;;12.98;6.03;;;11.80;99.90;;;-144.20;100.00;62730.56;4169414;28;20022;-74
2023/12/27 01:11:30;;;;;;;13.55;6.07;;;11.80;99.90;;;-144.20;100.00;62730.56;4168409;28;20056;-74
2023/12/27 01:13:32;;;;;;;9.32;5.50;;;11.80;99.90;;;-144.20;100.00;62730.56;4166664;28;20025;-74
2023/12/27 01:15:33;;;;;;;14.15;5.47;;;11.80;99.90;;;-144.20;100.00;62730.56;4168247;28;20029;-74
2023/12/27 01:17:33;;;;;;;13.45;5.93;;;11.80;99.90;;;-144.20;100.00;62730.56;4169356;28;20036;-74
2023/12/27 01:19:35;;;;;;;15.50;5.95;;;11.70;99.90;;;-144.20;100.00;62730.56;4169069;28;20471;-74
2023/12/27 01:21:35;;;;;;;13.93;5.95;;;11.80;99.90;;;-144.20;100.00;62730.56;4168264;28;20052;-73
2023/12/27 01:23:36;;;;;;;13.05;6.07;;;11.70;99.90;;;-144.20;100.00;62730.56;4168145;28;20025;-74
2023/12/27 01:25:37;;;;;;;14.00;5.68;;;11.70;99.90;;;-144.20;100.00;62730.56;4169249;28;20029;-74
2023/12/27 01:27:38;;;;;;;15.10;5.88;;;11.70;99.90;;;-144.20;100.00;62730.56;4167846;28;20036;-74
2023/12/27 01:29:39;;;;;;;10.88;5.15;;;11.60;99.90;;;-144.20;100.00;62730.56;4168022;28;20025;-74
2023/12/27 01:31:40;;;;;;;13.45;6.18;;;11.60;99.90;;;-144.20;100.00;62730.56;4169180;28;20032;-74
2023/12/27 01:33:41;;;;;;;14.93;6.47;;;11.60;99.90;;;-144.20;100.00;62730.56;4158299;28;20109;-74
2023/12/27 01:35:42;;;;;;;14.43;7.38;;;11.60;99.90;;;-144.20;100.00;62730.56;4168122;28;20025;-74
2023/12/27 01:37:44;;;;;;;14.68;6.40;;;11.60;99.90;;;-144.20;100.00;62730.56;4169267;28;20021;-73
2023/12/27 01:39:44;;;;;;;12.15;6.53;;;11.60;99.90;;;-144.20;100.00;62730.56;4167831;28;20032;-74
2023/12/27 01:41:45;;;;;;;22.05;7.65;;;11.70;99.90;;;-144.20;100.00;62730.56;4167521;28;20029;-74
2023/12/27 01:43:46;;;;;;;14.60;7.00;;;11.70;99.90;;;-144.20;100.00;62730.56;4167626;28;20028;-73
2023/12/27 01:45:49;;;;;;;16.10;7.47;;;11.70;99.90;;;-144.20;100.00;62730.56;4169033;28;20052;-74
2023/12/27 01:47:50;;;;;;;18.45;7.53;;;11.70;99.90;;;-144.20;100.00;62730.56;4166941;28;20026;-74
2023/12/27 01:49:52;;;;;;;13.13;6.22;;;11.70;99.90;;;-144.20;100.00;62730.56;4168833;28;20034;-74
2023/12/27 01:51:53;;;;;;;15.55;6.40;;;11.70;99.90;;;-144.20;100.00;62730.56;4168885;28;20021;-74
2023/12/27 01:53:57;;;;;;;16.50;6.47;;;11.70;99.90;;;-144.20;100.00;62730.56;4167736;28;20084;-74
2023/12/27 01:55:58;;;;;;;;;;;11.70;99.90;;;-144.20;100.00;62730.56;4168103;28;20033;-74
2023/12/27 01:58:00;;;;;;;17.58;5.47;;;11.80;99.90;;;-144.20;100.00;62730.56;4200445;28;19909;-74
2023/12/27 02:00:01;;;;;;;19.50;6.85;;;11.70;99.90;;;-144.20;100.00;62730.56;4168714;28;20029;-74
2023/12/27 02:02:02;;;;;;;19.10;8.00;;;11.70;99.90;;;-144.20;100.00;62730.56;4168923;28;20155;-74
2023/12/27 02:04:03;;;;;;;15.10;7.50;;;11.80;99.90;;;-144.20;100.00;62730.56;4163771;28;20037;-73
2023/12/27 02:06:05;;;;;;;18.40;7.63;;;11.70;99.90;;;-144.20;100.00;62730.56;4168689;28;20057;-74
2023/12/27 02:08:08;;;;;;;15.38;6.88;;;11.70;99.90;;;-144.20;100.00;62730.56;4168640;28;20117;-74
2023/12/27 02:10:11;;;;;;;16.00;5.95;;;11.70;99.90;;;-144.20;100.00;62730.56;4167605;28;20056;-74
2023/12/27 02:12:27;;;;;;;16.42;7.65;;;11.70;99.90;;;-144.20;100.00;62730.56;4167288;28;20026;-74
2023/12/27 02:14:28;;;;;;;17.73;8.05;;;11.70;99.90;;;-144.20;100.00;62730.56;4167362;28;20022;-74
2023/12/27 02:16:29;;;;;;;16.38;6.95;;;11.70;99.90;;;-144.20;100.00;62730.56;4167359;28;20036;-74
2023/12/27 02:18:30;;;;;;;17.35;6.57;;;11.80;99.90;;;-144.20;100.00;62730.56;4168621;28;20041;-74
2023/12/27 02:20:32;;;;;;;16.63;6.07;;;11.80;99.90;;;-144.20;100.00;62730.56;4167468;28;20433;-74
2023/12/27 02:22:35;;;;;;;18.65;7.93;;;11.80;99.90;;;-144.20;100.00;62730.56;4166284;28;20021;-74
2023/12/27 02:24:37;;;;;;;24.13;8.65;;;11.80;99.90;;;-144.20;100.00;62730.56;4189722;28;20029;-74
2023/12/27 02:26:38;;;;;;;16.60;6.68;;;11.80;99.90;;;-144.20;100.00;62730.56;4200188;28;20028;-74
2023/12/27 02:28:39;;;;;;;18.23;7.60;;;11.70;99.90;;;-144.20;100.00;62730.56;4168545;28;20037;-74
2023/12/27 02:30:40;;;;;;;17.70;7.00;;;11.80;99.90;;;-144.20;100.00;62730.56;4167173;28;20028;-74
2023/12/27 02:32:41;;;;;;;19.23;6.70;;;11.80;99.90;;;-144.20;100.00;62730.56;4166688;28;20041;-74
2023/12/27 02:34:42;;;;;;;22.65;7.90;;;11.70;99.90;;;-144.20;100.00;62730.56;4193868;28;20020;-74
2023/12/27 02:36:42;;;;;;;12.82;6.50;;;11.80;99.90;;;-144.20;100.00;62730.56;4168568;28;20049;-73
2023/12/27 02:38:43;;;;;;;10.13;6.38;;;11.70;99.90;;;-144.20;100.00;62730.56;4169578;28;20017;-74
2023/12/27 02:40:44;;;;;;;16.02;7.30;;;11.80;99.90;;;-144.20;100.00;62730.56;4180296;28;20025;-74
2023/12/27 02:42:45;;;;;;;16.27;7.47;;;11.70;99.90;;;-144.20;100.00;62730.56;4168360;28;20037;-74
2023/12/27 02:44:46;;;;;;;17.58;6.90;;;11.70;99.90;;;-144.20;100.00;62730.56;4168544;28;20033;-74
2023/12/27 02:46:47;;;;;;;15.38;7.00;;;11.70;99.90;;;-144.20;100.00;62730.56;4150606;28;20026;-74
2023/12/27 02:48:47;;;;;;;21.50;7.50;;;11.70;99.90;;;-144.20;100.00;62730.56;4168463;28;20029;-74
2023/12/27 02:50:49;;;;;;;22.75;7.63;;;11.70;99.90;;;-144.20;100.00;62730.56;4168506;28;20025;-74
2023/12/27 02:52:50;;;;;;;22.02;7.25;;;11.80;99.90;;;-144.20;100.00;62730.56;4166796;28;20077;-74
2023/12/27 02:54:51;;;;;;;18.02;7.40;;;11.70;99.90;;;-144.20;100.00;62730.56;4168298;28;20174;-73
2023/12/27 02:56:52;;;;;;;20.33;8.07;;;11.70;99.90;;;-144.20;100.00;62730.56;4168338;28;20089;-74
2023/12/27 02:58:52;;;;;;;17.80;7.22;;;11.70;99.90;;;-144.20;100.00;62730.56;4167035;28;20101;-74
2023/12/27 03:00:53;;;;;;;23.33;6.85;;;11.70;99.90;;;-144.20;100.00;62730.56;4170899;28;20026;-74
2023/12/27 03:02:54;;;;;;;15.38;6.72;;;11.70;99.90;;;-144.20;100.00;62730.56;4167767;28;20045;-74
2023/12/27 03:04:55;;;;;;;14.43;6.35;;;11.70;99.90;;;-144.20;100.00;62730.56;4171696;28;20034;-74
2023/12/27 03:06:56;;;;;;;19.60;7.47;;;11.70;99.90;;;-144.20;100.00;62730.56;4171614;28;20084;-74
2023/12/27 03:08:57;;;;;;;15.90;7.95;;;11.70;99.90;;;-144.20;100.00;62730.56;4171438;28;20033;-74
2023/12/27 03:10:58;;;;;;;18.17;7.45;;;11.70;99.90;;;-144.20;100.00;62730.56;4171364;28;20028;-74
2023/12/27 03:12:59;;;;;;;16.98;6.70;;;11.70;99.90;;;-144.20;100.00;62730.56;4169957;28;20031;-74
2023/12/27 03:15:00;;;;;;;14.68;6.35;;;11.70;99.90;;;-144.20;100.00;62730.56;4170228;28;20076;-74
2023/12/27 03:17:00;;;;;;;17.25;5.95;;;11.70;99.90;;;-144.20;100.00;62730.56;4171499;28;20508;-74
2023/12/27 03:19:03;;;;;;;10.60;6.72;;;11.70;99.90;;;-144.20;100.00;62730.56;4169953;28;20080;-74
2023/12/27 03:21:04;;;;;;;17.35;6.40;;;11.70;99.90;;;-144.20;100.00;62730.56;4171143;28;20045;-74
2023/12/27 03:23:05;;;;;;;14.45;7.82;;;11.70;99.90;;;-144.20;100.00;62730.56;4157981;28;20029;-74
2023/12/27 03:25:06;;;;;;;13.82;5.95;;;11.70;99.90;;;-144.20;100.00;62730.56;4195932;28;20431;-74
2023/12/27 03:27:07;;;;;;;12.82;6.68;;;11.70;99.90;;;-144.20;100.00;62730.56;4169758;28;20025;-74
2023/12/27 03:29:08;;;;;;;21.10;7.75;;;11.60;99.90;;;-144.20;100.00;62730.56;4203093;28;20395;-74
2023/12/27 03:31:09;;;;;;;13.95;6.43;;;11.70;99.90;;;-144.20;100.00;62730.56;4169994;28;20018;-74
2023/12/27 03:33:09;;;;;;;16.90;6.10;;;11.60;99.90;;;-144.20;100.00;62730.56;4166030;28;20026;-74
2023/12/27 03:35:10;;;;;;;13.77;6.65;;;11.70;99.90;;;-144.20;100.00;62730.56;4198266;28;20469;-74
2023/12/27 03:37:12;;;;;;;15.00;6.78;;;11.70;99.90;;;-144.20;100.00;62730.56;4170860;28;20029;-73
2023/12/27 03:39:13;;;;;;;23.92;8.60;;;11.60;99.90;;;-144.20;100.00;62730.56;4170958;28;20025;-74
2023/12/27 03:41:14;;;;;;;11.48;6.45;;;11.60;99.90;;;-144.20;100.00;62730.56;4169600;28;20033;-74
2023/12/27 03:43:15;;;;;;;16.67;6.93;;;11.60;99.90;;;-144.20;100.00;62730.56;4174819;28;20494;-74
2023/12/27 03:45:18;;;;;;;18.83;7.65;;;11.70;99.90;;;-144.20;100.00;62730.56;4170656;28;20052;-74
2023/12/27 03:47:20;;;;;;;16.30;6.72;;;11.60;99.90;;;-144.20;100.00;62730.56;4186160;28;20021;-73
2023/12/27 03:49:21;;;;;;;13.82;6.75;;;11.60;99.90;;;-144.20;100.00;62730.56;4170883;28;20401;-74
2023/12/27 03:51:22;;;;;;;12.52;5.75;;;11.60;99.90;;;-144.20;100.00;62730.56;4185510;28;20025;-74
2023/12/27 03:53:23;;;;;;;11.82;6.03;;;11.60;99.90;;;-144.20;100.00;62730.56;4164497;28;20026;-74
2023/12/27 03:55:27;;;;;;;13.52;6.25;;;11.60;99.90;;;-144.20;100.00;62730.56;4169443;28;20032;-73
2023/12/27 03:57:27;;;;;;;19.27;6.40;;;11.60;99.90;;;-144.20;100.00;62730.56;4170110;28;20034;-73
2023/12/27 03:59:28;;;;;;;15.07;6.20;;;11.60;99.90;;;-144.20;100.00;62730.56;4169276;28;20076;-73
2023/12/27 04:01:29;;;;;;;18.63;6.00;;;11.70;99.90;;;-144.20;100.00;62730.56;4170317;28;20025;-74
2023/12/27 04:03:30;;;;;;;16.70;6.50;;;11.60;99.90;;;-144.20;100.00;62730.56;4167275;28;20021;-74
2023/12/27 04:05:31;;;;;;;14.23;5.82;;;11.60;99.90;;;-144.20;100.00;62730.56;4170456;28;20067;-74
2023/12/27 04:07:32;;;;;;;15.57;6.30;;;11.60;99.90;;;-144.20;100.00;62730.56;4169110;28;20026;-74
2023/12/27 04:09:33;;;;;;;15.90;6.57;;;11.60;99.90;;;-144.20;100.00;62730.56;4169283;28;20021;-74
2023/12/27 04:11:34;;;;;;;12.65;6.50;;;11.60;99.90;;;-144.20;100.00;62730.56;4168953;28;20025;-74
2023/12/27 04:13:34;;;;;;;15.98;6.03;;;11.60;99.90;;;-144.20;100.00;62730.56;4169514;28;20131;-74
2023/12/27 04:15:35;;;;;;;13.23;6.38;;;11.60;99.90;;;-144.20;100.00;62730.56;4202437;28;20020;-74
2023/12/27 04:17:36;;;;;;;20.02;7.05;;;11.50;99.90;;;-144.20;100.00;62730.56;4185467;28;20024;-74
2023/12/27 04:19:37;;;;;;;15.52;7.30;;;11.50;99.90;;;-144.20;100.00;62730.56;4185452;28;20045;-73
2023/12/27 04:21:40;;;;;;;18.40;6.70;;;11.50;99.90;;;-144.20;100.00;62730.56;4170327;28;20485;-74
2023/12/27 04:23:41;;;;;;;14.77;6.60;;;11.50;99.90;;;-144.20;100.00;62730.56;4160783;28;20405;-73
2023/12/27 04:25:41;;;;;;;10.95;6.07;;;11.50;99.90;;;-144.20;100.00;62730.56;4199052;28;20036;-74
2023/12/27 04:27:42;;;;;;;18.00;6.85;;;11.50;99.90;;;-144.20;100.00;62730.56;4155963;28;20021;-74
2023/12/27 04:29:43;;;;;;;16.05;7.05;;;11.50;99.90;;;-144.20;100.00;62730.56;4169003;28;20072;-74
2023/12/27 04:31:44;;;;;;;14.90;6.63;;;11.50;99.90;;;-144.20;100.00;62730.56;4170328;28;20017;-74
2023/12/27 04:33:45;;;;;;;12.73;6.55;;;11.50;99.90;;;-144.20;100.00;62730.56;4152284;28;20021;-74
2023/12/27 04:35:46;;;;;;;12.90;7.00;;;11.50;99.90;;;-144.20;100.00;62730.56;4157185;28;20029;-74
2023/12/27 04:37:46;;;;;;;12.10;6.80;;;11.50;99.90;;;-144.20;100.00;62730.56;4169950;28;20397;-73
2023/12/27 04:39:47;;;;;;;17.48;7.25;;;11.40;99.90;;;-144.20;100.00;62730.56;4168577;28;20033;-74
2023/12/27 04:41:48;;;;;;;20.67;7.25;;;11.40;99.90;;;-144.20;100.00;62730.56;4174202;28;20028;-74
2023/12/27 04:43:49;;;;;;;20.08;7.65;;;11.40;99.90;;;-144.20;100.00;62730.56;4152301;28;20029;-74
2023/12/27 04:45:50;;;;;;;14.60;6.28;;;11.40;99.90;;;-144.20;100.00;62730.56;4191491;28;20028;-74
2023/12/27 04:47:51;;;;;;;14.93;6.80;;;11.50;99.90;;;-144.20;100.00;62730.56;4152153;28;20515;-74
2023/12/27 04:49:52;;;;;;;15.95;6.78;;;11.40;99.90;;;-144.20;100.00;62730.56;4166116;28;20053;-74
2023/12/27 04:51:53;;;;;;;14.75;6.75;;;11.40;99.90;;;-144.20;100.00;62730.56;4168919;28;20017;-74
2023/12/27 04:53:53;;;;;;;17.85;6.85;;;11.40;99.90;;;-144.20;100.00;62730.56;4181224;28;20033;-74
2023/12/27 04:55:54;;;;;;;15.52;6.57;;;11.50;99.90;;;-144.20;100.00;62730.56;4168515;28;20075;-74
2023/12/27 04:57:55;;;;;;;13.13;6.80;;;11.40;99.90;;;-144.20;100.00;62730.56;4169441;28;20037;-73
2023/12/27 04:59:56;;;;;;;13.65;7.03;;;11.50;99.90;;;-144.20;100.00;62730.56;4169384;28;20084;-74
2023/12/27 05:01:57;;;;;;;18.38;7.18;;;11.50;99.90;;;-144.20;100.00;62730.56;4168233;28;20112;-74
2023/12/27 05:03:58;;;;;;;11.23;5.88;;;11.50;99.90;;;-144.20;100.00;62730.56;4168386;28;20075;-74
2023/12/27 05:05:59;;;;;;;20.00;7.20;;;11.50;99.90;;;-144.20;100.00;62730.56;4169565;28;20025;-74
2023/12/27 05:07:59;;;;;;;13.77;6.35;;;11.50;99.90;;;-144.20;100.00;62730.56;4169293;28;20033;-74
2023/12/27 05:10:00;;;;;;;16.15;7.78;;;11.40;99.90;;;-144.20;100.00;62730.56;4169593;28;20025;-74
2023/12/27 05:12:03;;;;;;;12.80;6.18;;;11.50;99.90;;;-144.20;100.00;62730.56;4168034;28;20029;-74
2023/12/27 05:14:03;;;;;;;15.32;6.43;;;11.50;99.90;;;-144.20;100.00;62730.56;4158821;28;20382;-74
2023/12/27 05:16:16;;;;;;;17.73;6.13;;;11.50;99.90;;;-144.20;100.00;62730.56;4168023;28;20057;-74
2023/12/27 05:18:16;;;;;;;15.70;6.75;;;11.50;99.90;;;-144.20;100.00;62730.56;4169320;28;20045;-74
2023/12/27 05:20:17;;;;;;;15.65;5.47;;;11.50;99.90;;;-144.20;100.00;62730.56;4151718;28;20022;-74
2023/12/27 05:22:19;;;;;;;11.20;6.07;;;11.50;99.90;;;-144.20;100.00;62730.56;4168646;28;20095;-73
2023/12/27 05:24:19;;;;;;;12.48;5.78;;;11.50;99.90;;;-144.20;100.00;62730.56;4169336;28;20026;-73
2023/12/27 05:26:20;;;;;;;11.82;5.70;;;11.50;99.90;;;-144.20;100.00;62730.56;4168123;28;20538;-74
2023/12/27 05:28:22;;;;;;;19.40;7.15;;;11.50;99.90;;;-144.20;100.00;62730.56;4167822;28;20436;-74
2023/12/27 05:30:23;;;;;;;17.67;7.28;;;11.50;99.90;;;-144.20;100.00;62730.56;4167919;28;20485;-74
2023/12/27 05:32:25;;;;;;;16.60;5.72;;;11.50;99.90;;;-144.20;100.00;62730.56;4169135;28;20067;-74
2023/12/27 05:34:27;;;;;;;12.98;6.22;;;11.50;99.90;;;-144.20;100.00;62730.56;4160456;28;20428;-73
2023/12/27 05:36:28;;;;;;;12.60;5.00;;;11.50;99.90;;;-144.20;100.00;62730.56;4167980;28;20024;-73
2023/12/27 05:38:28;;;;;;;15.23;5.70;;;11.50;99.90;;;-144.20;100.00;62730.56;4167910;28;20018;-74
2023/12/27 05:40:29;;;;;;;12.77;5.70;;;11.50;99.90;;;-144.20;100.00;62730.56;4167941;28;20032;-74
2023/12/27 05:42:30;;;;;;;15.70;5.07;;;11.50;99.90;;;-144.20;100.00;62730.56;4167717;28;20040;-74
2023/12/27 05:44:31;;;;;;;11.93;5.05;;;11.50;99.90;;;-144.20;100.00;62730.56;4168908;28;20511;-74
2023/12/27 05:46:35;;;;;;;11.10;5.25;;;11.50;99.90;;;-144.20;100.00;62730.56;4168903;28;20155;-74
2023/12/27 05:48:36;;;;;;;10.98;4.72;;;11.50;99.90;;;-144.20;100.00;62730.56;4200131;28;20028;-74
2023/12/27 05:50:37;;;;;;;12.55;5.35;;;11.40;99.90;;;-144.20;100.00;62730.56;4169114;28;20083;-73
2023/12/27 05:52:40;;;;;;;15.23;5.13;;;11.50;99.90;;;-144.20;100.00;62730.56;4168219;28;20077;-74
2023/12/27 05:54:40;;;;;;;12.75;4.95;;;11.40;99.90;;;-144.20;100.00;62730.56;4164853;28;20572;-74
2023/12/27 05:56:41;;;;;;;13.07;5.15;;;11.40;99.90;;;-144.20;100.00;62730.56;4167313;28;20037;-74
2023/12/27 05:58:42;;;;;;;11.35;5.20;;;11.40;99.90;;;-144.20;100.00;62730.56;4167771;28;20021;-74
2023/12/27 06:00:43;;;;;;;16.15;5.18;;;11.40;99.90;;;-144.20;100.00;62730.56;4168728;28;20021;-73
2023/12/27 06:02:44;;;;;;;13.15;5.45;;;11.40;99.90;;;-144.20;100.00;62730.56;4151439;28;20025;-74
2023/12/27 06:04:45;;;;;;;14.57;5.15;;;11.40;99.90;;;-144.20;100.00;62730.56;4168599;28;20021;-73
2023/12/27 06:06:49;;;;;;;19.27;7.65;;;11.40;99.90;;;-144.20;100.00;62730.56;4167536;28;20033;-74
2023/12/27 06:08:49;;;;;;;14.80;5.45;;;11.40;99.90;;;-144.20;100.00;62730.56;4167830;28;20104;-74
2023/12/27 06:10:50;;;;;;;12.57;4.90;;;11.40;99.90;;;-144.20;100.00;62730.56;4168792;28;20396;-74
2023/12/27 06:12:51;;;;;;;15.18;5.90;;;11.40;99.90;;;-144.20;100.00;62730.56;4183635;28;20024;-74
2023/12/27 06:14:52;;;;;;;15.75;4.97;;;11.40;99.90;;;-144.20;100.00;62730.56;4167559;28;20033;-73
2023/12/27 06:16:53;;;;;;;14.00;5.55;;;11.40;99.90;;;-144.20;100.00;62730.56;4200827;28;20028;-74
2023/12/27 06:18:54;;;;;;;15.35;5.10;;;11.40;99.90;;;-144.20;100.00;62730.56;4168635;28;20493;-74
2023/12/27 06:20:55;;;;;;;16.80;5.32;;;11.40;99.90;;;-144.20;100.00;62730.56;4167296;28;20025;-73
2023/12/27 06:22:56;;;;;;;12.63;5.80;;;11.40;99.90;;;-144.20;100.00;62730.56;4167056;28;20025;-74
2023/12/27 06:24:57;;;;;;;13.63;5.18;;;11.40;99.90;;;-144.20;100.00;62730.56;4160187;28;20030;-73
2023/12/27 06:26:57;;;;;;;16.15;5.00;;;11.40;99.90;;;-144.20;100.00;62730.56;4167131;28;20029;-74
2023/12/27 06:28:58;;;;;;;9.77;4.60;;;11.40;99.90;;;-144.20;100.00;62730.56;4168464;28;20028;-74
2023/12/27 06:30:59;;;;;;;14.18;4.78;;;11.40;99.90;;;-144.20;100.00;62730.56;4167243;28;20028;-73
2023/12/27 06:33:00;;;;;;;9.40;4.47;;;11.40;99.90;;;-144.20;100.00;62730.56;4166448;28;20104;-74
2023/12/27 06:35:02;;;;;;;13.35;4.95;;;11.30;99.90;;;-144.20;100.00;62730.56;4197500;28;20028;-74
2023/12/27 06:37:03;;;;;;;15.75;5.57;;;11.40;99.90;;;-144.20;100.00;62730.56;4169953;28;20013;-74
2023/12/27 06:39:06;;;;;;;9.02;4.45;;;11.40;99.90;;;-144.20;100.00;62730.56;4171937;28;20484;-74
2023/12/27 06:41:08;;;;;;;12.85;4.88;;;11.30;99.90;;;-144.20;100.00;62730.56;4171825;28;20022;-74
2023/12/27 06:43:09;;;;;;;10.13;4.95;;;11.30;99.90;;;-144.20;100.00;62730.56;4168441;28;20048;-74
2023/12/27 06:45:11;;;;;;;13.80;5.22;;;11.30;99.90;;;-144.20;100.00;62730.56;4178594;28;20033;-74
2023/12/27 06:47:12;;;;;;;11.07;4.63;;;11.30;99.90;;;-144.20;100.00;62730.56;4170537;28;20061;-74
2023/12/27 06:49:12;;;;;;;9.30;5.10;;;11.30;99.90;;;-144.20;100.00;62730.56;4171701;28;20013;-74
2023/12/27 06:51:13;;;;;;;11.60;4.72;;;11.30;99.90;;;-144.20;100.00;62730.56;4170340;28;20100;-74
2023/12/27 06:53:14;;;;;;;9.02;4.57;;;11.30;99.90;;;-144.20;100.00;62730.56;4153655;28;20026;-74
2023/12/27 06:55:15;;;;;;;13.98;5.68;;;11.30;99.90;;;-144.20;100.00;62730.56;4159011;28;20033;-74
2023/12/27 06:57:16;;;;;;;13.50;4.95;;;11.30;99.90;;;-144.20;100.00;62730.56;4171364;28;20037;-74
2023/12/27 06:59:16;;;;;;;14.00;4.50;;;11.30;99.90;;;-144.20;100.00;62730.56;4171511;28;20500;-74
2023/12/27 07:01:17;;;;;;;9.77;4.30;;;11.30;99.90;;;-144.20;100.00;62730.56;4169987;28;20029;-74
2023/12/27 07:03:18;;;;;;;9.52;4.88;;;11.20;99.90;;;-144.20;100.00;62730.56;4203603;28;20112;-74
2023/12/27 07:05:19;;;;;;;11.27;5.20;;;11.20;99.90;;;-144.20;100.00;62730.56;4170398;28;20026;-74
2023/12/27 07:07:20;;;;;;;11.55;4.43;;;11.20;99.90;;;-144.20;100.00;62730.56;4170282;28;20033;-74
2023/12/27 07:09:22;;;;;;;14.05;5.18;;;11.20;99.90;;;-144.20;100.00;62730.56;4170099;28;20022;-74
2023/12/27 07:11:23;;;;;;;12.48;4.35;;;11.20;99.90;;;-144.20;100.00;62730.56;4170044;28;20477;-74
2023/12/27 07:13:23;;;;;;;12.80;4.50;;;11.20;99.90;;;-144.20;100.00;62730.56;4168087;28;20060;-74
2023/12/27 07:15:24;;;;;;;16.35;4.60;;;11.20;99.90;;;-144.20;100.00;62730.56;4196229;28;20399;-74
2023/12/27 07:17:25;;;;;;;17.38;5.32;;;11.20;99.90;;;-144.20;100.00;62730.56;4171216;28;20025;-74
2023/12/27 07:19:26;;;;;;;7.97;4.47;;;11.10;99.90;;;-144.20;100.00;62730.56;4202640;28;20052;-74
2023/12/27 07:21:27;;;;;;;8.82;4.32;;;11.20;99.90;;;-144.20;100.00;62730.56;4170247;28;20025;-74
2023/12/27 07:23:28;;;;;;;10.95;4.28;;;11.10;99.90;;;-144.20;100.00;62730.56;4167389;28;20037;-73
2023/12/27 07:25:29;;;;;;;14.93;4.45;;;11.10;99.90;;;-144.20;100.00;62730.56;4198772;28;20031;-74
2023/12/27 07:27:29;;;;;;;12.55;4.60;;;11.10;99.90;;;-144.20;100.00;62730.56;4169461;28;20092;-74
2023/12/27 07:29:30;;;;;;;14.32;4.70;;;11.10;99.90;;;-144.20;100.00;62730.56;4171049;28;20017;-74
2023/12/27 07:31:31;;;;;;;10.10;4.78;;;11.10;99.90;;;-144.20;100.00;62730.56;4169818;28;20072;-74
2023/12/27 07:33:36;;;;;;;14.45;5.57;;;11.00;99.90;;;-144.20;100.00;62730.56;4198580;28;20032;-74
2023/12/27 07:35:36;;;;;;;9.65;4.25;;;11.00;99.90;;;-144.20;100.00;62730.56;4170185;28;20029;-73
2023/12/27 07:37:37;;;;;;;12.82;5.10;;;11.00;99.90;;;-144.20;100.00;62730.56;4169996;28;20028;-73
2023/12/27 07:39:40;;;;;;;12.05;5.90;;;11.00;99.90;;;-144.20;100.00;62730.56;4170944;28;20033;-74
2023/12/27 07:41:42;;;;;;;13.75;5.45;;;11.00;99.90;;;-144.20;100.00;62730.56;4170672;28;20101;-74
2023/12/27 07:43:43;;;;;;;8.85;4.57;;;11.00;99.90;;;-144.20;100.00;62730.56;4170469;28;20697;-74
2023/12/27 07:45:44;;;;;;;12.75;4.00;;;11.00;99.90;;;-144.20;100.00;62730.56;4169066;28;20029;-74
2023/12/27 07:47:45;;;;;;;13.13;4.50;;;11.00;99.90;;;-144.20;100.00;62730.56;4170741;28;20033;-73
2023/12/27 07:49:45;;;;;;;10.93;4.15;;;11.00;99.90;;;-144.20;100.00;62730.56;4170712;28;20037;-74
2023/12/27 07:51:46;;;;;;;19.45;6.22;;;10.90;99.90;;;-144.20;100.00;62730.56;4170453;28;20060;-73
2023/12/27 07:53:50;;;;;;;10.10;4.82;;;10.90;99.90;;;-144.20;100.00;62730.56;4169525;28;20481;-74
2023/12/27 07:55:51;;;;;;;11.95;5.22;;;10.90;99.90;;;-144.20;100.00;62730.56;4185821;28;20033;-74
2023/12/27 07:57:52;;;;;;;10.80;5.30;;;10.90;99.90;;;-144.20;100.00;62730.56;4170465;28;20135;-74
2023/12/27 07:59:57;;;;;;;10.30;5.03;;;10.90;99.90;;;-144.20;100.00;62730.56;4169199;28;20033;-73
2023/12/27 08:01:58;;;;;;;8.82;4.00;;;10.90;99.90;;;-144.20;100.00;62730.56;4202300;28;20029;-74
2023/12/27 08:03:59;;;;;;;11.13;5.93;;;10.90;99.90;;;-144.20;100.00;62730.56;4169306;28;20037;-74
2023/12/27 08:06:00;;;;;;;10.55;4.82;;;10.80;99.90;;;-144.20;100.00;62730.56;4170575;28;20052;-74
2023/12/27 08:08:05;;;;;;;11.63;4.82;;;10.80;99.90;;;-144.20;100.00;62730.56;4170284;28;20034;-73
2023/12/27 08:10:06;;;;;;;14.93;5.20;;;10.80;99.90;;;-144.20;100.00;62730.56;4170557;28;20026;-73